Time;durP1;ratioP1;P1;durP2;ratioP2;P2;SDS_P1;SDS_P2;PMS_P1;PMS_P2;Temp;Humidity;BMP_temperature;BMP_pressure;BME280_temperature;BME280_humidity;BME280_pressure;Samples;Min_cycle;Max_cycle;Signal;HPM_P1;HPM_P2
2021/05/04 00:00:49;;;;;;;2.35;0.60;;;21.60;51.70;;;;;;3157461;28;20054;-67
2021/05/04 00:02:20;;;;;;;3.45;0.68;;;21.50;52.20;;;;;;3158764;28;20075;-68
2021/05/04 00:03:52;;;;;;;2.30;0.80;;;21.40;52.60;;;;;;3158057;28;20096;-68
2021/05/04 00:05:25;;;;;;;2.35;0.70;;;21.30;52.90;;;;;;3158391;28;20051;-66
2021/05/04 00:06:56;;;;;;;2.20;0.60;;;21.30;53.10;;;;;;3158755;28;20075;-67
2021/05/04 00:08:26;;;;;;;8.32;0.85;;;21.30;53.30;;;;;;3154582;28;20044;-67
2021/05/04 00:09:58;;;;;;;1.73;0.70;;;21.20;53.60;;;;;;3144780;28;20102;-67
2021/05/04 00:11:29;;;;;;;2.45;0.60;;;21.20;53.70;;;;;;3145898;28;20078;-68
2021/05/04 00:12:59;;;;;;;4.45;0.50;;;21.10;53.50;;;;;;3146127;28;20398;-67
2021/05/04 00:14:31;;;;;;;0.77;0.50;;;21.10;53.90;;;;;;3145948;28;20047;-67
2021/05/04 00:16:03;;;;;;;2.08;0.52;;;21.10;53.90;;;;;;3144460;28;20555;-68
2021/05/04 00:17:34;;;;;;;1.80;0.60;;;21.10;54.00;;;;;;3145635;28;20051;-67
2021/05/04 00:19:05;;;;;;;1.95;0.70;;;21.00;53.80;;;;;;3145591;28;20048;-67
2021/05/04 00:20:37;;;;;;;3.05;0.68;;;21.10;54.00;;;;;;3145881;28;20040;-67
2021/05/04 00:22:08;;;;;;;0.70;0.60;;;21.00;54.00;;;;;;3150174;28;20764;-67
2021/05/04 00:23:39;;;;;;;0.85;0.68;;;21.00;54.20;;;;;;3158364;28;20052;-67
2021/05/04 00:25:11;;;;;;;0.50;0.50;;;21.00;54.20;;;;;;3158202;28;20125;-67
2021/05/04 00:26:42;;;;;;;1.58;0.60;;;21.00;54.30;;;;;;3152274;28;20048;-67
2021/05/04 00:28:13;;;;;;;1.00;0.68;;;20.90;54.30;;;;;;3145307;28;20045;-66
2021/05/04 00:29:44;;;;;;;1.58;0.70;;;21.00;54.40;;;;;;3145075;28;20467;-67
2021/05/04 00:31:15;;;;;;;0.50;0.50;;;20.90;54.10;;;;;;3144836;28;20036;-66
2021/05/04 00:32:46;;;;;;;0.60;0.60;;;21.00;54.00;;;;;;3145471;28;20044;-67
2021/05/04 00:34:17;;;;;;;1.55;0.65;;;20.90;54.30;;;;;;3145161;28;20043;-67
2021/05/04 00:35:49;;;;;;;0.65;0.55;;;20.90;54.10;;;;;;3144158;28;20075;-66
2021/05/04 00:37:20;;;;;;;1.33;0.60;;;20.90;54.40;;;;;;3145641;28;20044;-66
2021/05/04 00:38:52;;;;;;;0.60;0.60;;;20.90;54.50;;;;;;3145310;28;20059;-67
2021/05/04 00:40:23;;;;;;;1.80;0.50;;;20.90;54.50;;;;;;3145642;28;20052;-66
2021/05/04 00:41:54;;;;;;;1.83;0.60;;;20.90;54.50;;;;;;3145727;28;20071;-67
2021/05/04 00:43:25;;;;;;;0.88;0.68;;;20.90;53.90;;;;;;3145163;28;20044;-67
2021/05/04 00:44:56;;;;;;;1.02;0.50;;;20.80;54.40;;;;;;3144910;28;20041;-66
2021/05/04 00:46:27;;;;;;;0.60;0.60;;;20.80;53.70;;;;;;3144985;28;20052;-66
2021/05/04 00:47:58;;;;;;;0.60;0.60;;;20.80;53.60;;;;;;3145800;28;20060;-66
2021/05/04 00:49:30;;;;;;;0.82;0.40;;;20.80;53.50;;;;;;3172413;22;20039;-75
2021/05/04 00:51:02;;;;;;;2.65;0.63;;;20.80;53.80;;;;;;3168505;28;20081;-75
2021/05/04 00:52:33;;;;;;;1.00;0.60;;;20.80;54.50;;;;;;3170150;28;20459;-75
2021/05/04 00:54:04;;;;;;;3.83;0.52;;;20.80;54.80;;;;;;3169837;28;20035;-75
2021/05/04 00:55:35;;;;;;;0.57;0.57;;;20.80;54.90;;;;;;3159277;28;20423;-75
2021/05/04 00:57:06;;;;;;;0.60;0.60;;;20.80;55.00;;;;;;3157553;28;20044;-75
2021/05/04 00:58:38;;;;;;;1.85;0.50;;;20.80;54.90;;;;;;3178531;27;20047;-75
2021/05/04 01:00:11;;;;;;;1.77;0.40;;;20.80;55.10;;;;;;3181345;27;20072;-75
2021/05/04 01:01:42;;;;;;;5.38;0.70;;;20.80;55.00;;;;;;3182525;28;20506;-75
2021/05/04 01:03:14;;;;;;;1.35;0.70;;;20.80;54.80;;;;;;3182813;28;20047;-75
2021/05/04 01:04:45;;;;;;;3.75;0.57;;;20.80;54.60;;;;;;3182416;27;20055;-75
2021/05/04 01:06:17;;;;;;;2.95;0.70;;;20.80;54.40;;;;;;3182000;28;20047;-75
2021/05/04 01:07:49;;;;;;;1.83;0.60;;;20.80;54.00;;;;;;3181784;28;20062;-75
2021/05/04 01:09:19;;;;;;;2.22;0.70;;;20.80;54.40;;;;;;3168957;28;20055;-75
2021/05/04 01:10:51;;;;;;;1.50;0.80;;;20.80;54.10;;;;;;3169847;28;20051;-75
2021/05/04 01:12:22;;;;;;;3.40;0.85;;;20.80;53.90;;;;;;3170154;28;20067;-74
2021/05/04 01:13:55;;;;;;;3.90;0.73;;;20.70;53.80;;;;;;3171576;28;20051;-75
2021/05/04 01:15:26;;;;;;;2.33;0.60;;;20.80;55.00;;;;;;3171094;28;20064;-74
2021/05/04 01:16:57;;;;;;;5.43;0.68;;;20.80;55.10;;;;;;3172716;28;20040;-74
2021/05/04 01:18:28;;;;;;;2.65;0.85;;;20.70;55.40;;;;;;3171863;28;20093;-74
2021/05/04 01:19:59;;;;;;;1.40;0.60;;;20.70;55.20;;;;;;3171693;28;20088;-75
2021/05/04 01:21:31;;;;;;;2.25;0.65;;;20.70;54.60;;;;;;3172721;28;20058;-75
2021/05/04 01:23:02;;;;;;;0.93;0.55;;;20.70;54.40;;;;;;3172076;28;20047;-75
2021/05/04 01:24:33;;;;;;;1.55;0.80;;;20.70;54.20;;;;;;3183946;27;20038;-75
2021/05/04 01:26:05;;;;;;;2.22;0.85;;;20.70;54.70;;;;;;3184553;27;20050;-74
2021/05/04 01:27:36;;;;;;;3.13;0.82;;;20.70;54.50;;;;;;3185110;27;20066;-75
2021/05/04 01:29:07;;;;;;;2.58;0.68;;;20.70;54.50;;;;;;3183728;27;20054;-75
2021/05/04 01:30:38;;;;;;;3.75;0.55;;;20.70;53.80;;;;;;3183439;27;20492;-75
2021/05/04 01:32:09;;;;;;;2.42;0.65;;;20.70;53.80;;;;;;3184731;27;20595;-75
2021/05/04 01:33:40;;;;;;;2.95;0.70;;;20.70;53.70;;;;;;3183651;27;20694;-75
2021/05/04 01:35:12;;;;;;;1.10;0.70;;;20.60;53.40;;;;;;3183277;27;20104;-75
2021/05/04 01:36:44;;;;;;;1.80;0.60;;;20.70;53.40;;;;;;3184412;27;20084;-75
2021/05/04 01:38:16;;;;;;;4.93;0.40;;;20.70;53.70;;;;;;3181472;27;20051;-75
2021/05/04 01:39:48;;;;;;;0.60;0.50;;;20.70;54.90;;;;;;3170776;28;20048;-75
2021/05/04 01:41:19;;;;;;;1.80;0.60;;;20.70;55.00;;;;;;3171806;28;20408;-75
2021/05/04 01:42:50;;;;;;;2.63;0.90;;;20.70;54.70;;;;;;3171478;28;20296;-74
2021/05/04 01:44:21;;;;;;;1.85;0.50;;;20.70;54.80;;;;;;3182924;27;20039;-75
2021/05/04 01:45:52;;;;;;;0.70;0.65;;;20.70;55.00;;;;;;3182410;27;20074;-75
2021/05/04 01:47:23;;;;;;;0.50;0.50;;;20.70;54.70;;;;;;3183113;27;20035;-75
2021/05/04 01:48:54;;;;;;;2.05;0.60;;;20.70;54.80;;;;;;3183356;27;20054;-75
2021/05/04 01:50:26;;;;;;;0.50;0.50;;;20.70;54.90;;;;;;3184320;27;20051;-75
2021/05/04 01:51:57;;;;;;;2.45;0.60;;;20.70;54.60;;;;;;3184087;27;20051;-75
2021/05/04 01:53:29;;;;;;;0.68;0.68;;;20.70;55.00;;;;;;3177162;27;20541;-75
2021/05/04 01:55:00;;;;;;;0.50;0.50;;;20.70;55.00;;;;;;3170711;28;20073;-75
2021/05/04 01:56:31;;;;;;;1.70;0.80;;;20.70;54.80;;;;;;3170732;27;20074;-75
2021/05/04 01:58:02;;;;;;;1.25;0.60;;;20.70;54.80;;;;;;3171299;28;20142;-74
2021/05/04 01:59:33;;;;;;;0.73;0.60;;;20.70;54.70;;;;;;3170450;28;20039;-75
2021/05/04 02:01:04;;;;;;;0.47;0.47;;;20.70;55.00;;;;;;3170387;28;20044;-75
2021/05/04 02:02:36;;;;;;;1.35;0.52;;;20.70;54.80;;;;;;3170722;28;20047;-74
2021/05/04 02:04:07;;;;;;;1.67;0.70;;;20.70;54.90;;;;;;3170942;28;20050;-75
2021/05/04 02:05:38;;;;;;;0.60;0.60;;;20.70;54.80;;;;;;3170859;28;20055;-75
2021/05/04 02:07:10;;;;;;;0.50;0.50;;;20.60;54.30;;;;;;3171687;28;20048;-74
2021/05/04 02:08:41;;;;;;;0.70;0.60;;;20.70;54.80;;;;;;3174942;27;20043;-74
2021/05/04 02:10:12;;;;;;;0.52;0.52;;;20.70;54.60;;;;;;3170539;28;20040;-74
2021/05/04 02:11:43;;;;;;;1.42;0.60;;;20.70;54.80;;;;;;3171209;28;20056;-75
2021/05/04 02:13:14;;;;;;;0.65;0.60;;;20.70;54.40;;;;;;3171209;28;20044;-75
2021/05/04 02:14:45;;;;;;;0.85;0.60;;;20.70;53.80;;;;;;3179456;27;20039;-75
2021/05/04 02:16:16;;;;;;;0.90;0.60;;;20.70;54.10;;;;;;3182745;27;20043;-75
2021/05/04 02:17:47;;;;;;;0.60;0.60;;;20.70;53.80;;;;;;3184120;27;20096;-75
2021/05/04 02:19:18;;;;;;;1.88;0.60;;;20.70;53.80;;;;;;3183385;27;20043;-75
2021/05/04 02:20:49;;;;;;;1.13;0.70;;;20.70;53.50;;;;;;3183901;27;20051;-75
2021/05/04 02:22:21;;;;;;;0.93;0.50;;;20.60;53.30;;;;;;3184133;27;20051;-75
2021/05/04 02:23:52;;;;;;;1.90;0.67;;;20.70;53.70;;;;;;3183450;27;20058;-75
2021/05/04 02:25:23;;;;;;;0.73;0.65;;;20.70;53.30;;;;;;3170256;27;20293;-75
2021/05/04 02:26:54;;;;;;;0.77;0.60;;;20.70;53.30;;;;;;3171082;28;20089;-74
2021/05/04 02:28:25;;;;;;;1.80;0.50;;;20.60;53.40;;;;;;3170924;28;20092;-74
2021/05/04 02:29:56;;;;;;;0.57;0.57;;;20.70;54.20;;;;;;3170404;28;20047;-74
2021/05/04 02:31:27;;;;;;;0.60;0.60;;;20.60;53.80;;;;;;3170093;28;20723;-74
2021/05/04 02:32:58;;;;;;;1.00;0.60;;;20.60;53.70;;;;;;3171077;28;20051;-74
2021/05/04 02:34:29;;;;;;;1.02;0.60;;;20.60;53.70;;;;;;3170456;28;20051;-74
2021/05/04 02:36:01;;;;;;;0.75;0.68;;;20.60;53.20;;;;;;3170249;28;20055;-75
2021/05/04 02:37:33;;;;;;;0.63;0.63;;;20.60;53.50;;;;;;3170807;28;20507;-74
2021/05/04 02:39:06;;;;;;;1.07;0.70;;;20.60;53.50;;;;;;3180071;27;20507;-74
2021/05/04 02:40:36;;;;;;;0.60;0.60;;;20.60;53.20;;;;;;3182762;27;20043;-74
2021/05/04 02:42:08;;;;;;;1.95;0.70;;;20.60;53.30;;;;;;3183608;27;20097;-74
2021/05/04 02:43:39;;;;;;;1.25;0.60;;;20.60;53.00;;;;;;3180962;27;20054;-74
2021/05/04 02:45:11;;;;;;;1.65;0.70;;;20.60;53.00;;;;;;3170065;28;20058;-75
2021/05/04 02:46:42;;;;;;;0.63;0.63;;;20.70;53.20;;;;;;3170944;28;20059;-75
2021/05/04 02:48:13;;;;;;;0.50;0.50;;;20.60;53.00;;;;;;3170448;28;20043;-74
2021/05/04 02:49:44;;;;;;;0.88;0.50;;;20.60;53.00;;;;;;3169994;28;20051;-75
2021/05/04 02:51:15;;;;;;;5.45;0.60;;;20.70;53.30;;;;;;3171245;28;20407;-75
2021/05/04 02:52:47;;;;;;;0.63;0.50;;;20.70;54.80;;;;;;3171146;28;20396;-75
2021/05/04 02:54:18;;;;;;;0.93;0.60;;;20.70;55.50;;;;;;3170090;28;20051;-75
2021/05/04 02:55:49;;;;;;;0.60;0.60;;;20.70;54.90;;;;;;3170196;28;20043;-75
2021/05/04 02:57:21;;;;;;;2.13;0.70;;;20.70;55.30;;;;;;3170541;28;20066;-75
2021/05/04 02:58:52;;;;;;;1.60;0.55;;;20.70;55.20;;;;;;3169751;28;20051;-75
2021/05/04 03:00:23;;;;;;;0.55;0.50;;;20.70;55.40;;;;;;3179166;27;20051;-74
2021/05/04 03:01:54;;;;;;;3.03;0.70;;;20.70;55.40;;;;;;3183631;27;20057;-74
2021/05/04 03:03:25;;;;;;;2.20;0.60;;;20.70;55.40;;;;;;3183770;27;20050;-74
2021/05/04 03:04:56;;;;;;;1.35;0.60;;;20.70;55.80;;;;;;3182112;27;20050;-74
2021/05/04 03:06:28;;;;;;;2.60;0.52;;;20.70;55.80;;;;;;3184353;27;20054;-74
2021/05/04 03:08:00;;;;;;;0.95;0.60;;;20.70;55.60;;;;;;3184604;27;20652;-74
2021/05/04 03:09:33;;;;;;;0.80;0.60;;;20.70;55.20;;;;;;3183865;27;20136;-74
2021/05/04 03:11:04;;;;;;;;;;;20.70;55.60;;;;;;3183337;27;20129;-74
2021/05/04 03:12:35;;;;;;;0.60;0.60;;;20.70;55.10;;;;;;3173522;27;19946;-74
2021/05/04 03:14:06;;;;;;;1.45;0.50;;;20.70;55.10;;;;;;3169927;28;20047;-74
2021/05/04 03:15:37;;;;;;;0.98;0.50;;;20.70;55.10;;;;;;3169252;28;20667;-74
2021/05/04 03:17:08;;;;;;;0.80;0.70;;;20.70;55.50;;;;;;3170338;28;20511;-74
2021/05/04 03:18:39;;;;;;;1.25;0.68;;;20.60;54.90;;;;;;3169540;27;20588;-75
2021/05/04 03:20:12;;;;;;;0.47;0.47;;;20.70;55.00;;;;;;3170798;28;20385;-74
2021/05/04 03:21:43;;;;;;;0.50;0.50;;;20.70;55.40;;;;;;3170501;28;20134;-74
2021/05/04 03:23:15;;;;;;;0.77;0.50;;;20.70;54.80;;;;;;3173009;27;20044;-74
2021/05/04 03:24:47;;;;;;;0.60;0.50;;;20.70;55.20;;;;;;3182681;27;20043;-74
2021/05/04 03:26:18;;;;;;;1.07;0.53;;;20.70;55.10;;;;;;3182452;27;20387;-75
2021/05/04 03:27:50;;;;;;;0.60;0.60;;;20.70;55.80;;;;;;3183175;27;20047;-75
2021/05/04 03:29:21;;;;;;;4.35;0.45;;;20.60;55.70;;;;;;3182313;27;20491;-75
2021/05/04 03:30:52;;;;;;;2.58;0.60;;;20.70;56.20;;;;;;3181830;27;20446;-74
2021/05/04 03:32:23;;;;;;;1.80;0.70;;;20.70;55.50;;;;;;3183765;27;20047;-74
2021/05/04 03:33:55;;;;;;;1.00;0.63;;;20.70;55.30;;;;;;3178180;27;20051;-75
2021/05/04 03:35:26;;;;;;;1.15;0.60;;;20.70;54.80;;;;;;3169082;28;20092;-75
2021/05/04 03:36:57;;;;;;;0.60;0.50;;;20.70;54.80;;;;;;3170797;28;20051;-74
2021/05/04 03:38:29;;;;;;;5.53;0.70;;;20.70;54.90;;;;;;3174845;27;20050;-74
2021/05/04 03:40:00;;;;;;;2.10;0.60;;;20.70;54.20;;;;;;3177828;27;20101;-74
2021/05/04 03:41:31;;;;;;;1.35;0.70;;;20.70;54.10;;;;;;3170553;28;20051;-74
2021/05/04 03:43:03;;;;;;;1.60;0.60;;;20.60;54.20;;;;;;3170421;28;20055;-74
2021/05/04 03:44:34;;;;;;;0.80;0.55;;;20.70;54.10;;;;;;3180893;27;20043;-74
2021/05/04 03:46:05;;;;;;;0.63;0.60;;;20.70;53.80;;;;;;3181971;27;20737;-74
2021/05/04 03:47:38;;;;;;;0.43;0.43;;;20.70;53.80;;;;;;3182165;27;20046;-74
2021/05/04 03:49:09;;;;;;;0.65;0.50;;;20.70;53.60;;;;;;3182233;27;20035;-74
2021/05/04 03:50:41;;;;;;;2.08;0.68;;;20.70;53.80;;;;;;3182771;27;20043;-74
2021/05/04 03:52:13;;;;;;;1.17;0.70;;;20.70;53.60;;;;;;3183271;27;20130;-75
2021/05/04 03:53:45;;;;;;;0.40;0.40;;;20.70;53.60;;;;;;3176568;27;20301;-75
2021/05/04 03:55:15;;;;;;;0.52;0.50;;;20.70;53.80;;;;;;3170339;28;20078;-75
2021/05/04 03:56:46;;;;;;;0.85;0.50;;;20.60;54.10;;;;;;3169948;28;20044;-75
2021/05/04 03:58:18;;;;;;;0.60;0.52;;;20.70;54.80;;;;;;3170380;28;20439;-74
2021/05/04 03:59:50;;;;;;;0.55;0.55;;;20.60;53.90;;;;;;3171123;27;20522;-75
2021/05/04 04:01:21;;;;;;;1.00;0.68;;;20.70;54.00;;;;;;3181623;27;20050;-74
2021/05/04 04:02:52;;;;;;;1.08;0.55;;;20.70;53.80;;;;;;3182508;27;20050;-75
2021/05/04 04:04:24;;;;;;;1.90;0.63;;;20.70;54.20;;;;;;3182224;27;20061;-74
2021/05/04 04:05:56;;;;;;;0.43;0.43;;;20.70;54.20;;;;;;3182722;27;20051;-75
2021/05/04 04:07:27;;;;;;;0.45;0.45;;;20.70;53.90;;;;;;3182427;27;20074;-74
2021/05/04 04:08:59;;;;;;;0.50;0.50;;;20.70;54.00;;;;;;3181602;27;20054;-75
2021/05/04 04:10:30;;;;;;;0.73;0.50;;;20.60;53.90;;;;;;3182327;27;20039;-75
2021/05/04 04:12:01;;;;;;;1.52;0.50;;;20.70;54.30;;;;;;3182774;27;20100;-75
2021/05/04 04:13:33;;;;;;;0.60;0.60;;;20.70;55.30;;;;;;3175210;27;20048;-74
2021/05/04 04:15:05;;;;;;;0.70;0.60;;;20.70;55.20;;;;;;3168634;28;20295;-75
2021/05/04 04:16:36;;;;;;;1.05;0.47;;;20.70;54.70;;;;;;3169673;28;20476;-75
2021/05/04 04:18:08;;;;;;;1.92;0.60;;;20.70;55.70;;;;;;3169669;27;20508;-74
2021/05/04 04:19:38;;;;;;;10.38;0.70;;;20.70;55.70;;;;;;3169250;28;20040;-74
2021/05/04 04:21:09;;;;;;;4.03;0.50;;;20.70;55.80;;;;;;3170257;28;20505;-74
2021/05/04 04:22:41;;;;;;;8.13;0.85;;;20.70;55.90;;;;;;3170251;28;20544;-74
2021/05/04 04:24:13;;;;;;;20.95;1.27;;;20.80;56.90;;;;;;3179009;27;20515;-75
2021/05/04 04:25:44;;;;;;;10.32;0.70;;;20.80;57.30;;;;;;3182182;28;20060;-76
2021/05/04 04:27:15;;;;;;;6.03;0.80;;;20.90;57.10;;;;;;3181930;28;20051;-74
2021/05/04 04:28:46;;;;;;;11.65;1.02;;;20.90;57.00;;;;;;3181787;27;20056;-76
2021/05/04 04:30:19;;;;;;;9.98;0.70;;;20.80;56.90;;;;;;3173854;27;20039;-73
2021/05/04 04:31:50;;;;;;;5.85;0.70;;;20.80;56.80;;;;;;3180982;28;20668;-73
2021/05/04 04:33:24;;;;;;;8.50;0.80;;;20.80;56.70;;;;;;3169966;28;20411;-74
2021/05/04 04:34:56;;;;;;;3.03;0.60;;;20.80;56.70;;;;;;3169457;28;20706;-74
2021/05/04 04:36:27;;;;;;;4.07;0.60;;;20.70;56.80;;;;;;3177166;28;20067;-74
2021/05/04 04:37:58;;;;;;;7.18;0.50;;;20.70;56.70;;;;;;3182052;28;20043;-73
2021/05/04 04:39:30;;;;;;;7.38;0.52;;;20.70;56.70;;;;;;3169705;28;20039;-74
2021/05/04 04:41:01;;;;;;;5.43;0.82;;;20.60;56.60;;;;;;3173935;28;20051;-74
2021/05/04 04:42:32;;;;;;;23.67;1.05;;;20.60;56.50;;;;;;3182393;28;20051;-75
2021/05/04 04:44:03;;;;;;;13.15;0.75;;;20.60;56.50;;;;;;3181999;27;20399;-74
2021/05/04 04:45:34;;;;;;;5.35;0.60;;;20.60;56.50;;;;;;3181657;27;20418;-74
2021/05/04 04:47:06;;;;;;;2.25;0.60;;;20.60;56.50;;;;;;3177454;27;20404;-74
2021/05/04 04:48:38;;;;;;;3.80;0.57;;;20.50;56.40;;;;;;3171325;28;20062;-73
2021/05/04 04:50:09;;;;;;;2.70;0.70;;;20.50;56.20;;;;;;3172451;28;20051;-74
2021/05/04 04:51:40;;;;;;;3.60;0.50;;;20.50;56.30;;;;;;3172624;28;20543;-74
2021/05/04 04:53:12;;;;;;;3.58;0.60;;;20.50;56.10;;;;;;3172672;28;20120;-74
2021/05/04 04:54:44;;;;;;;6.57;0.73;;;20.50;56.10;;;;;;3171827;28;20716;-74
2021/05/04 04:56:15;;;;;;;1.87;0.40;;;20.50;56.00;;;;;;3172204;28;20047;-74
2021/05/04 04:57:46;;;;;;;2.83;0.50;;;20.50;56.10;;;;;;3172347;28;20039;-74
2021/05/04 04:59:17;;;;;;;5.80;0.93;;;20.50;56.10;;;;;;3171908;28;20043;-74
2021/05/04 05:00:48;;;;;;;4.53;0.63;;;20.50;55.90;;;;;;3171196;28;20066;-74
2021/05/04 05:02:19;;;;;;;1.52;0.60;;;20.50;55.80;;;;;;3172830;28;20399;-75
2021/05/04 05:03:50;;;;;;;3.45;0.55;;;20.50;55.70;;;;;;3171639;28;20127;-74
2021/05/04 05:05:22;;;;;;;1.30;0.60;;;20.50;55.70;;;;;;3171960;28;20488;-74
2021/05/04 05:06:52;;;;;;;2.92;0.50;;;20.50;55.60;;;;;;3171993;28;20052;-75
2021/05/04 05:08:23;;;;;;;2.38;0.57;;;20.50;55.60;;;;;;3172768;28;20054;-74
2021/05/04 05:09:55;;;;;;;1.02;0.30;;;20.40;55.70;;;;;;3171556;28;20051;-74
2021/05/04 05:11:26;;;;;;;1.02;0.50;;;20.40;55.60;;;;;;3166511;28;20055;-74
2021/05/04 05:12:58;;;;;;;1.08;0.60;;;20.40;55.60;;;;;;3161677;28;20040;-74
2021/05/04 05:14:29;;;;;;;1.67;0.60;;;20.40;55.50;;;;;;3159330;28;20056;-74
2021/05/04 05:16:00;;;;;;;0.50;0.47;;;20.40;55.50;;;;;;3158135;28;20063;-74
2021/05/04 05:17:31;;;;;;;1.88;0.40;;;20.40;55.60;;;;;;3171324;28;20044;-75
2021/05/04 05:19:03;;;;;;;2.75;0.68;;;20.40;55.60;;;;;;3167828;28;20051;-74
2021/05/04 05:20:34;;;;;;;1.27;0.40;;;20.40;55.60;;;;;;3159510;28;20052;-74
2021/05/04 05:22:06;;;;;;;0.90;0.40;;;20.40;55.60;;;;;;3159556;28;20070;-75
2021/05/04 05:23:37;;;;;;;0.88;0.40;;;20.40;56.10;;;;;;3159257;28;20052;-74
2021/05/04 05:25:10;;;;;;;0.65;0.30;;;20.40;55.50;;;;;;3159502;28;20044;-74
2021/05/04 05:26:41;;;;;;;0.73;0.35;;;20.40;55.60;;;;;;3160482;28;20056;-76
2021/05/04 05:28:12;;;;;;;1.85;0.40;;;20.40;55.50;;;;;;3160997;28;20052;-75
2021/05/04 05:29:43;;;;;;;1.55;0.43;;;20.50;55.70;;;;;;3169933;28;20043;-74
2021/05/04 05:31:14;;;;;;;1.65;0.30;;;20.40;55.60;;;;;;3172204;28;20073;-74
2021/05/04 05:32:45;;;;;;;2.80;0.50;;;20.40;55.50;;;;;;3171685;28;20058;-74
2021/05/04 05:34:17;;;;;;;0.30;0.30;;;20.40;55.50;;;;;;3160401;28;20039;-74
2021/05/04 05:35:48;;;;;;;1.90;0.50;;;20.40;55.40;;;;;;3171228;28;20077;-74
2021/05/04 05:37:19;;;;;;;0.55;0.40;;;20.40;55.40;;;;;;3162041;28;20055;-75
2021/05/04 05:38:51;;;;;;;0.50;0.40;;;20.40;55.40;;;;;;3158832;28;20048;-75
2021/05/04 05:40:22;;;;;;;1.23;0.40;;;20.40;55.50;;;;;;3162747;28;20065;-74
2021/05/04 05:41:54;;;;;;;0.50;0.40;;;20.40;55.40;;;;;;3172376;28;20058;-75
2021/05/04 05:43:25;;;;;;;1.10;0.30;;;20.40;55.40;;;;;;3172351;28;20051;-74
2021/05/04 05:44:56;;;;;;;1.35;0.40;;;20.40;55.40;;;;;;3171173;28;20043;-75
2021/05/04 05:46:30;;;;;;;0.30;0.30;;;20.40;55.30;;;;;;3170919;28;20617;-75
2021/05/04 05:48:01;;;;;;;0.40;0.40;;;20.40;55.40;;;;;;3172264;28;20135;-75
2021/05/04 05:49:32;;;;;;;0.50;0.30;;;20.40;55.40;;;;;;3170995;28;20051;-75
2021/05/04 05:51:04;;;;;;;1.30;0.40;;;20.40;55.30;;;;;;3172373;28;20059;-75
2021/05/04 05:52:35;;;;;;;1.27;0.40;;;20.40;55.20;;;;;;3172146;28;20053;-75
2021/05/04 05:54:06;;;;;;;1.50;0.40;;;20.40;55.40;;;;;;3172150;28;20047;-75
2021/05/04 05:55:38;;;;;;;0.25;0.25;;;20.40;55.20;;;;;;3171669;28;20044;-75
2021/05/04 05:57:10;;;;;;;0.30;0.30;;;20.40;55.20;;;;;;3171980;28;20051;-74
2021/05/04 05:58:40;;;;;;;0.73;0.30;;;20.40;55.10;;;;;;3170625;28;20051;-75
2021/05/04 06:00:16;;;;;;;0.30;0.30;;;20.40;55.20;;;;;;3171173;28;20524;-75
2021/05/04 06:01:47;;;;;;;2.15;0.40;;;20.40;55.20;;;;;;3171791;28;20059;-75
2021/05/04 06:03:18;;;;;;;0.85;0.30;;;20.40;55.20;;;;;;3171882;28;20056;-74
2021/05/04 06:04:51;;;;;;;0.55;0.38;;;20.40;55.20;;;;;;3171224;28;20042;-76
2021/05/04 06:06:22;;;;;;;1.27;0.40;;;20.40;55.10;;;;;;3164788;28;20044;-70
2021/05/04 06:07:53;;;;;;;0.98;0.40;;;20.40;55.10;;;;;;3170175;28;20051;-69
2021/05/04 06:09:24;;;;;;;0.63;0.30;;;20.40;55.00;;;;;;3169390;28;20092;-68
2021/05/04 06:10:56;;;;;;;0.40;0.25;;;20.40;55.10;;;;;;3170427;28;20055;-68
2021/05/04 06:12:27;;;;;;;1.40;0.30;;;20.40;55.00;;;;;;3170852;28;20043;-69
2021/05/04 06:13:58;;;;;;;0.77;0.30;;;20.40;55.10;;;;;;3160709;28;20285;-69
2021/05/04 06:15:29;;;;;;;0.45;0.30;;;20.40;55.00;;;;;;3157358;28;20040;-68
2021/05/04 06:17:01;;;;;;;3.88;0.57;;;20.40;55.00;;;;;;3158780;28;20044;-69
2021/05/04 06:18:31;;;;;;;1.55;0.60;;;20.40;55.10;;;;;;3158504;28;20130;-68
2021/05/04 06:20:03;;;;;;;2.58;0.77;;;20.50;54.80;;;;;;3158067;28;20039;-72
2021/05/04 06:21:35;;;;;;;2.17;0.65;;;20.50;54.60;;;;;;3158688;28;20762;-69
2021/05/04 06:23:06;;;;;;;1.08;0.68;;;20.50;54.50;;;;;;3158492;28;20535;-71
2021/05/04 06:24:37;;;;;;;4.82;0.70;;;20.60;54.50;;;;;;3157749;28;20073;-70
2021/05/04 06:26:09;;;;;;;6.03;0.90;;;20.60;55.10;;;;;;3158188;28;20052;-69
2021/05/04 06:27:40;;;;;;;3.75;0.75;;;20.60;54.40;;;;;;3158553;28;20044;-70
2021/05/04 06:29:11;;;;;;;1.55;0.65;;;20.60;54.30;;;;;;3157921;28;20051;-69
2021/05/04 06:30:42;;;;;;;1.80;0.50;;;20.60;54.30;;;;;;3160830;28;20479;-70
2021/05/04 06:32:15;;;;;;;2.70;0.60;;;20.60;54.20;;;;;;3167296;28;20074;-71
2021/05/04 06:33:46;;;;;;;;;;;20.60;54.20;;;;;;3166355;28;20051;-71
2021/05/04 06:35:19;;;;;;;0.93;0.50;;;20.60;54.00;;;;;;3167638;28;20357;-72
2021/05/04 06:36:50;;;;;;;1.15;0.68;;;20.60;54.00;;;;;;3167689;28;20073;-70
2021/05/04 06:38:21;;;;;;;1.85;0.60;;;20.60;54.00;;;;;;3167413;28;20089;-69
2021/05/04 06:39:52;;;;;;;3.33;0.57;;;20.60;54.00;;;;;;3169410;28;20047;-71
2021/05/04 06:41:24;;;;;;;1.52;0.50;;;20.60;54.00;;;;;;3159756;28;20048;-70
2021/05/04 06:42:55;;;;;;;2.38;0.55;;;20.60;54.00;;;;;;3167303;28;20040;-69
2021/05/04 06:44:27;;;;;;;3.70;0.60;;;20.60;53.90;;;;;;3164857;28;20047;-71
2021/05/04 06:45:58;;;;;;;2.83;0.50;;;20.60;54.50;;;;;;3163608;28;20081;-72
2021/05/04 06:47:29;;;;;;;1.98;0.50;;;20.60;53.90;;;;;;3170343;28;20043;-70
2021/05/04 06:49:01;;;;;;;1.30;0.55;;;20.60;53.90;;;;;;3168789;28;20146;-72
2021/05/04 06:50:32;;;;;;;0.88;0.70;;;20.60;53.90;;;;;;3162856;28;20075;-70
2021/05/04 06:52:03;;;;;;;1.17;0.70;;;20.60;53.80;;;;;;3170125;28;20059;-71
2021/05/04 06:53:34;;;;;;;2.33;0.60;;;20.60;53.70;;;;;;3170293;28;20074;-70
2021/05/04 06:55:06;;;;;;;1.90;0.47;;;20.60;53.70;;;;;;3169425;28;20446;-70
2021/05/04 06:56:38;;;;;;;1.95;0.60;;;20.60;53.70;;;;;;3169649;28;20046;-72
2021/05/04 06:58:09;;;;;;;0.73;0.50;;;20.60;53.70;;;;;;3170635;28;20047;-70
2021/05/04 06:59:40;;;;;;;1.13;0.60;;;20.60;53.70;;;;;;3169256;28;20036;-70
2021/05/04 07:01:11;;;;;;;0.40;0.40;;;20.60;53.80;;;;;;3169437;28;20047;-75
2021/05/04 07:02:43;;;;;;;0.70;0.50;;;20.60;53.70;;;;;;3165921;28;20051;-77
2021/05/04 07:04:13;;;;;;;3.75;0.60;;;20.60;53.70;;;;;;3168208;28;20439;-72
2021/05/04 07:05:45;;;;;;;2.78;0.73;;;20.60;53.70;;;;;;3169203;28;20051;-74
2021/05/04 07:07:16;;;;;;;2.63;0.60;;;20.70;53.80;;;;;;3168187;28;20108;-74
2021/05/04 07:08:47;;;;;;;2.10;0.60;;;20.70;53.80;;;;;;3170544;28;20058;-73
2021/05/04 07:10:19;;;;;;;1.13;0.52;;;20.70;53.80;;;;;;3171128;28;20100;-78
2021/05/04 07:11:52;;;;;;;1.08;0.60;;;20.70;53.80;;;;;;3170370;28;20055;-72
2021/05/04 07:13:23;;;;;;;3.15;0.70;;;20.70;53.70;;;;;;3164697;28;20048;-71
2021/05/04 07:14:54;;;;;;;1.60;0.60;;;20.70;53.80;;;;;;3160408;28;20040;-73
2021/05/04 07:16:26;;;;;;;11.98;1.15;;;20.80;53.70;;;;;;3169616;28;20172;-72
2021/05/04 07:17:57;;;;;;;3.55;0.60;;;20.80;53.80;;;;;;3169832;28;20051;-72
2021/05/04 07:19:28;;;;;;;3.65;0.55;;;20.80;53.70;;;;;;3170247;28;20047;-73
2021/05/04 07:21:03;;;;;;;2.58;0.50;;;20.80;53.80;;;;;;3170133;28;20404;-75
2021/05/04 07:22:36;;;;;;;2.08;0.55;;;20.80;53.80;;;;;;3167041;28;20062;-72
2021/05/04 07:24:08;;;;;;;0.57;0.50;;;20.80;53.80;;;;;;3170032;28;20055;-74
2021/05/04 07:25:39;;;;;;;3.33;0.70;;;20.80;53.80;;;;;;3169911;28;20135;-70
2021/05/04 07:27:11;;;;;;;4.93;0.75;;;20.80;53.80;;;;;;3170381;28;20050;-71
2021/05/04 07:28:43;;;;;;;5.55;0.60;;;20.80;53.80;;;;;;3169857;28;20046;-73
2021/05/04 07:30:16;;;;;;;2.45;0.60;;;20.80;53.80;;;;;;3168384;28;20073;-75
2021/05/04 07:31:47;;;;;;;2.90;0.73;;;20.80;53.80;;;;;;3170167;28;20058;-72
2021/05/04 07:33:18;;;;;;;2.33;0.57;;;20.80;53.70;;;;;;3170526;28;20059;-72
2021/05/04 07:34:49;;;;;;;3.90;0.47;;;20.90;53.70;;;;;;3169707;28;20108;-73
2021/05/04 07:36:20;;;;;;;3.53;0.70;;;20.80;53.60;;;;;;3170720;28;20044;-72
2021/05/04 07:37:51;;;;;;;1.65;0.60;;;20.80;53.50;;;;;;3170451;28;20093;-74
2021/05/04 07:39:23;;;;;;;1.98;0.68;;;20.80;53.50;;;;;;3170019;28;20112;-71
2021/05/04 07:40:54;;;;;;;2.00;0.57;;;20.80;53.40;;;;;;3170101;28;20051;-72
2021/05/04 07:42:26;;;;;;;1.95;0.50;;;20.80;53.30;;;;;;3170765;28;20101;-73
2021/05/04 07:43:57;;;;;;;0.90;0.50;;;20.80;53.30;;;;;;3169564;28;20047;-74
2021/05/04 07:45:29;;;;;;;1.45;0.55;;;20.80;53.30;;;;;;3168915;28;20047;-74
2021/05/04 07:47:00;;;;;;;1.65;0.63;;;20.90;53.20;;;;;;3177955;22;20045;-81
2021/05/04 07:48:31;;;;;;;2.30;0.60;;;20.90;53.20;;;;;;3130881;28;20068;-81
2021/05/04 07:50:03;;;;;;;2.58;0.60;;;20.90;53.20;;;;;;3126863;28;20061;-82
2021/05/04 07:51:34;;;;;;;3.03;0.70;;;20.90;53.10;;;;;;3134349;28;20072;-83
2021/05/04 07:53:20;;;;;;;1.58;0.80;;;20.90;53.00;;;;;;3134847;28;20053;-82
2021/05/04 07:54:52;;;;;;;0.52;0.50;;;20.90;53.00;;;;;;3133511;28;20056;-82
2021/05/04 07:56:23;;;;;;;1.52;0.60;;;20.90;53.10;;;;;;3133793;28;20119;-82